createdAt,value
2024-02-27T00:00:29.006Z,6.11
2024-02-27T00:01:29.018Z,6.12
2024-02-27T00:02:28.909Z,6.12
2024-02-27T00:03:28.917Z,6.11
2024-02-27T00:04:28.886Z,6.13
2024-02-27T00:05:28.917Z,6.11
2024-02-27T00:06:28.943Z,6.12
2024-02-27T00:07:29.035Z,6.09
2024-02-27T00:08:28.837Z,6.09
2024-02-27T00:09:28.870Z,6.11
2024-02-27T00:10:28.824Z,6.11
2024-02-27T00:11:28.894Z,6.11
2024-02-27T00:12:28.854Z,6.12
2024-02-27T00:13:28.884Z,6.11
2024-02-27T00:14:28.771Z,6.13
2024-02-27T00:15:28.767Z,6.13
2024-02-27T00:16:28.814Z,6.13
2024-02-27T00:17:28.838Z,6.15
2024-02-27T00:18:28.998Z,6.15
2024-02-27T00:19:28.875Z,6.15
2024-02-27T00:20:28.728Z,6.15
2024-02-27T00:21:28.730Z,6.16
2024-02-27T00:22:28.725Z,6.15
2024-02-27T00:23:28.687Z,6.15
2024-02-27T00:24:28.770Z,6.16
2024-02-27T00:25:28.742Z,6.16
2024-02-27T00:26:28.646Z,6.15
2024-02-27T00:27:28.685Z,6.16
2024-02-27T00:28:28.633Z,6.16
2024-02-27T00:29:28.618Z,6.15
2024-02-27T00:30:28.642Z,6.13
2024-02-27T00:31:28.697Z,6.11
2024-02-27T00:32:28.609Z,6.13
2024-02-27T00:33:28.648Z,6.13
2024-02-27T00:34:28.733Z,6.12
2024-02-27T00:35:28.569Z,6.12
2024-02-27T00:36:28.656Z,6.11
2024-02-27T00:37:28.601Z,6.12
2024-02-27T00:38:28.527Z,6.13
2024-02-27T00:39:28.570Z,6.15
2024-02-27T00:40:28.525Z,6.16
2024-02-27T00:41:28.589Z,6.16
2024-02-27T00:42:28.578Z,6.18
2024-02-27T00:43:28.470Z,6.16
2024-02-27T00:44:28.456Z,6.15
2024-02-27T00:45:28.610Z,6.15
2024-02-27T00:46:28.422Z,6.12
2024-02-27T00:50:21.612Z,6.11
2024-02-27T00:51:21.278Z,6.12
2024-02-27T00:52:21.236Z,6.15
2024-02-27T00:53:21.214Z,6.16
2024-02-27T00:54:00.282Z,6.18
2024-02-27T00:55:22.899Z,6.18
2024-02-27T00:56:21.356Z,6.18
2024-02-27T00:57:21.388Z,6.16
2024-02-27T00:58:21.158Z,6.15
2024-02-27T00:59:21.928Z,6.15
2024-02-27T01:00:21.691Z,6.15
2024-02-27T01:01:21.189Z,6.16
2024-02-27T01:02:21.110Z,6.15
2024-02-27T01:03:21.152Z,6.15
2024-02-27T01:04:21.080Z,6.15
2024-02-27T01:05:00.198Z,6.19
2024-02-27T01:06:00.295Z,6.18
2024-02-27T01:07:00.133Z,6.18
2024-02-27T01:08:00.054Z,6.19
2024-02-27T01:09:00.099Z,6.16
2024-02-27T01:10:00.051Z,6.16
2024-02-27T01:11:00.063Z,6.15
2024-02-27T01:12:00.055Z,6.15
2024-02-27T01:13:00.001Z,6.16
2024-02-27T01:13:59.998Z,6.13
2024-02-27T01:14:59.997Z,6.13
2024-02-27T01:15:59.977Z,6.12
2024-02-27T01:16:59.982Z,6.13
2024-02-27T01:18:00.043Z,6.12
2024-02-27T01:19:00.067Z,6.11
2024-02-27T01:20:00.000Z,6.09
2024-02-27T01:20:59.996Z,6.08
2024-02-27T01:21:59.889Z,6.08
2024-02-27T01:22:59.894Z,6.03
2024-02-27T01:23:59.920Z,6.05
2024-02-27T01:24:59.869Z,6.05
2024-02-27T01:25:59.848Z,6.03
2024-02-27T01:26:59.911Z,6.00
2024-02-27T01:27:59.851Z,6.00
2024-02-27T01:28:59.939Z,6.02
2024-02-27T01:29:59.887Z,5.98
2024-02-27T01:30:59.818Z,5.98
2024-02-27T01:31:59.827Z,6.02
2024-02-27T01:32:59.914Z,6.00
2024-02-27T01:33:59.906Z,6.02
2024-02-27T01:35:00.179Z,6.02
2024-02-27T01:35:59.898Z,6.02
2024-02-27T01:36:59.751Z,6.00
2024-02-27T01:37:59.755Z,5.97
2024-02-27T01:38:59.749Z,5.95
2024-02-27T01:39:59.712Z,5.94
2024-02-27T01:40:59.752Z,5.94
2024-02-27T01:41:59.721Z,5.94
2024-02-27T01:42:59.684Z,5.95
2024-02-27T01:43:59.700Z,5.97
2024-02-27T01:44:59.699Z,5.95
2024-02-27T01:45:59.677Z,5.94
2024-02-27T01:46:59.912Z,5.94
2024-02-27T01:47:59.756Z,5.93
2024-02-27T01:48:59.862Z,5.91
2024-02-27T01:49:59.604Z,5.93
2024-02-27T01:50:59.648Z,5.90
2024-02-27T01:51:59.668Z,5.90
2024-02-27T01:52:59.584Z,5.88
2024-02-27T01:53:59.642Z,5.84
2024-02-27T01:54:59.551Z,5.84
2024-02-27T01:55:59.594Z,5.82
2024-02-27T01:56:59.616Z,5.80
2024-02-27T01:57:59.590Z,5.79
2024-02-27T01:58:59.543Z,5.77
2024-02-27T01:59:59.532Z,5.79
2024-02-27T02:00:59.591Z,5.79
2024-02-27T02:01:59.508Z,5.79
2024-02-27T02:02:59.571Z,5.77
2024-02-27T02:03:59.575Z,5.77
2024-02-27T02:04:59.433Z,5.77
2024-02-27T02:05:59.485Z,5.77
2024-02-27T02:06:59.471Z,5.76
2024-02-27T02:07:59.412Z,5.76
2024-02-27T02:08:59.510Z,5.73
2024-02-27T02:09:59.389Z,5.72
2024-02-27T02:10:59.439Z,5.72
2024-02-27T02:11:59.414Z,5.73
2024-02-27T02:12:59.365Z,5.75
2024-02-27T02:13:59.341Z,5.72
2024-02-27T02:14:59.392Z,5.73
2024-02-27T02:15:59.373Z,5.72
2024-02-27T02:16:59.332Z,5.69
2024-02-27T02:17:59.405Z,5.69
2024-02-27T02:18:59.361Z,5.72
2024-02-27T02:19:59.312Z,5.70
2024-02-27T02:20:59.337Z,5.72
2024-02-27T02:21:59.416Z,5.70
2024-02-27T02:22:59.307Z,5.69
2024-02-27T02:23:59.278Z,5.72
2024-02-27T02:24:59.222Z,5.73
2024-02-27T02:25:59.236Z,5.73
2024-02-27T02:26:59.246Z,5.72
2024-02-27T02:27:59.188Z,5.70
2024-02-27T02:28:59.206Z,5.69
2024-02-27T02:29:59.205Z,5.69
2024-02-27T02:30:59.174Z,5.69
2024-02-27T02:31:59.173Z,5.67
2024-02-27T02:32:59.273Z,5.66
2024-02-27T02:33:59.169Z,5.65
2024-02-27T02:34:59.164Z,5.66
2024-02-27T02:35:59.138Z,5.66
2024-02-27T02:36:59.117Z,5.66
2024-02-27T02:37:59.134Z,5.67
2024-02-27T02:38:59.133Z,5.70
2024-02-27T02:39:59.066Z,5.70
2024-02-27T02:40:59.069Z,5.67
2024-02-27T02:41:59.114Z,5.66
2024-02-27T02:42:59.073Z,5.66
2024-02-27T02:43:59.061Z,5.66
2024-02-27T02:44:59.039Z,5.62
2024-02-27T02:45:58.989Z,5.62
2024-02-27T02:46:58.997Z,5.66
2024-02-27T02:47:59.226Z,5.65
2024-02-27T02:48:59.075Z,5.67
2024-02-27T02:49:59.060Z,5.67
2024-02-27T02:50:58.966Z,5.66
2024-02-27T02:51:58.946Z,5.65
2024-02-27T02:52:58.966Z,5.65
2024-02-27T02:53:59.011Z,5.65
2024-02-27T02:54:58.912Z,5.66
2024-02-27T02:55:58.921Z,5.65
2024-02-27T02:56:58.896Z,5.66
2024-02-27T02:57:58.926Z,5.65
2024-02-27T02:58:58.853Z,5.66
2024-02-27T02:59:58.922Z,5.69
2024-02-27T03:00:59.029Z,5.69
2024-02-27T03:01:58.826Z,5.67
2024-02-27T03:02:58.848Z,5.65
2024-02-27T03:03:58.882Z,5.61
2024-02-27T03:04:58.800Z,5.61
2024-02-27T03:05:58.959Z,5.61
2024-02-27T03:06:58.923Z,5.61
2024-02-27T03:07:58.818Z,5.61
2024-02-27T03:08:58.863Z,5.59
2024-02-27T03:09:58.762Z,5.58
2024-02-27T03:10:58.762Z,5.58
2024-02-27T03:11:58.747Z,5.55
2024-02-27T03:12:58.711Z,5.55
2024-02-27T03:13:58.701Z,5.54
2024-02-27T03:14:58.804Z,5.52
2024-02-27T03:15:58.704Z,5.50
2024-02-27T03:16:58.680Z,5.51
2024-02-27T03:17:58.793Z,5.52
2024-02-27T03:18:58.759Z,5.51
2024-02-27T03:19:58.742Z,5.52
2024-02-27T03:20:58.709Z,5.51
2024-02-27T03:21:58.645Z,5.51
2024-02-27T03:22:58.628Z,5.52
2024-02-27T03:23:58.617Z,5.51
2024-02-27T03:24:58.656Z,5.51
2024-02-27T03:25:58.637Z,5.51
2024-02-27T03:26:58.597Z,5.51
2024-02-27T03:27:58.567Z,5.51
2024-02-27T03:28:58.595Z,5.50
2024-02-27T03:29:58.561Z,5.50
2024-02-27T03:30:58.522Z,5.50
2024-02-27T03:31:58.498Z,5.50
2024-02-27T03:32:58.604Z,5.51
2024-02-27T03:33:58.639Z,5.48
2024-02-27T03:34:58.634Z,5.48
2024-02-27T03:35:58.562Z,5.50
2024-02-27T03:36:58.446Z,5.51
2024-02-27T03:37:58.443Z,5.51
2024-02-27T03:38:58.465Z,5.51
2024-02-27T03:39:58.421Z,5.51
2024-02-27T03:40:58.504Z,5.50
2024-02-27T03:41:58.556Z,5.51
2024-02-27T03:42:58.525Z,5.52
2024-02-27T03:43:58.377Z,5.52
2024-02-27T03:44:58.394Z,5.55
2024-02-27T03:45:58.398Z,5.55
2024-02-27T03:46:58.425Z,5.54
2024-02-27T03:47:58.437Z,5.54
2024-02-27T03:48:58.454Z,5.52
2024-02-27T03:49:58.347Z,5.54
2024-02-27T03:50:58.347Z,5.51
2024-02-27T03:51:58.417Z,5.50
2024-02-27T03:52:58.287Z,5.51
2024-02-27T03:53:58.457Z,5.48
2024-02-27T03:54:58.263Z,5.48
2024-02-27T03:55:58.302Z,5.50
2024-02-27T03:56:58.258Z,5.50
2024-02-27T03:57:58.323Z,5.50
2024-02-27T03:58:58.229Z,5.50
2024-02-27T03:59:58.261Z,5.48
2024-02-27T04:00:58.250Z,5.43
2024-02-27T04:01:58.184Z,5.41
2024-02-27T04:02:58.378Z,5.41
2024-02-27T04:03:58.201Z,5.43
2024-02-27T04:04:58.187Z,5.43
2024-02-27T04:05:58.209Z,5.41
2024-02-27T04:06:58.302Z,5.41
2024-02-27T04:07:58.267Z,5.41
2024-02-27T04:08:58.178Z,5.41
2024-02-27T04:09:58.107Z,5.41
2024-02-27T04:10:58.113Z,5.40
2024-02-27T04:11:58.147Z,5.41
2024-02-27T04:12:58.161Z,5.41
2024-02-27T04:13:58.089Z,5.40
2024-02-27T04:14:58.146Z,5.40
2024-02-27T04:15:58.155Z,5.39
2024-02-27T04:16:58.031Z,5.37
2024-02-27T04:17:58.056Z,5.37
2024-02-27T04:18:58.190Z,5.37
2024-02-27T04:19:58.073Z,5.36
2024-02-27T04:20:58.052Z,5.34
2024-02-27T04:21:58.016Z,5.34
2024-02-27T04:22:58.062Z,5.34
2024-02-27T04:23:58.085Z,5.32
2024-02-27T04:24:57.990Z,5.32
2024-02-27T04:25:57.932Z,5.30
2024-02-27T04:26:57.997Z,5.29
2024-02-27T04:27:58.013Z,5.27
2024-02-27T04:28:57.906Z,5.25
2024-02-27T04:29:57.918Z,5.27
2024-02-27T04:30:57.886Z,5.27
2024-02-27T04:31:57.890Z,5.29
2024-02-27T04:32:58.046Z,5.32
2024-02-27T04:33:58.010Z,5.32
2024-02-27T04:34:57.866Z,5.30
2024-02-27T04:35:57.832Z,5.30
2024-02-27T04:36:58.007Z,5.27
2024-02-27T04:37:57.818Z,5.24
2024-02-27T04:38:57.844Z,5.24
2024-02-27T04:39:57.791Z,5.22
2024-02-27T04:40:57.881Z,5.19
2024-02-27T04:41:57.870Z,5.19
2024-02-27T04:42:57.753Z,5.21
2024-02-27T04:43:57.736Z,5.21
2024-02-27T04:44:57.781Z,5.19
2024-02-27T04:45:57.728Z,5.16
2024-02-27T04:46:57.794Z,5.15
2024-02-27T04:47:57.783Z,5.15
2024-02-27T04:48:57.724Z,5.18
2024-02-27T04:49:57.715Z,5.18
2024-02-27T04:50:57.717Z,5.18
2024-02-27T04:51:57.720Z,5.16
2024-02-27T04:52:57.666Z,5.16
2024-02-27T04:53:57.630Z,5.15
2024-02-27T04:54:57.630Z,5.14
2024-02-27T04:55:57.599Z,5.15
2024-02-27T04:56:57.796Z,5.18
2024-02-27T04:57:57.708Z,5.19
2024-02-27T04:58:57.587Z,5.21
2024-02-27T04:59:57.619Z,5.21
2024-02-27T05:00:57.567Z,5.18
2024-02-27T05:01:57.560Z,5.18
2024-02-27T05:02:57.652Z,5.19
2024-02-27T05:03:57.668Z,5.19
2024-02-27T05:04:57.530Z,5.19
2024-02-27T05:05:57.592Z,5.19
2024-02-27T05:06:57.522Z,5.21
2024-02-27T05:07:57.607Z,5.21
2024-02-27T05:08:57.501Z,5.21
2024-02-27T05:09:57.491Z,5.21
2024-02-27T05:10:57.488Z,5.22
2024-02-27T05:11:57.529Z,5.21
2024-02-27T05:12:57.435Z,5.22
2024-02-27T05:13:57.415Z,5.22
2024-02-27T05:14:57.487Z,5.21
2024-02-27T05:15:57.468Z,5.22
2024-02-27T05:16:57.507Z,5.21
2024-02-27T05:17:57.725Z,5.18
2024-02-27T05:18:57.472Z,5.18
2024-02-27T05:19:57.363Z,5.19
2024-02-27T05:20:57.375Z,5.19
2024-02-27T05:21:57.353Z,5.15
2024-02-27T05:22:57.325Z,5.14
2024-02-27T05:23:57.424Z,5.14
2024-02-27T05:24:57.326Z,5.11
2024-02-27T05:25:57.401Z,5.12
2024-02-27T05:26:57.326Z,5.12
2024-02-27T05:27:57.284Z,5.09
2024-02-27T05:28:57.346Z,5.06
2024-02-27T05:29:57.306Z,5.01
2024-02-27T05:30:57.261Z,4.97
2024-02-27T05:31:57.230Z,4.94
2024-02-27T05:32:57.335Z,4.97
2024-02-27T05:33:57.368Z,5.00
2024-02-27T05:34:57.230Z,5.03
2024-02-27T05:35:57.348Z,5.04
2024-02-27T05:36:57.226Z,5.04
2024-02-27T05:37:57.206Z,5.01
2024-02-27T05:38:57.228Z,5.01
2024-02-27T05:39:57.228Z,5.00
2024-02-27T05:40:57.150Z,4.96
2024-02-27T05:41:57.263Z,4.93
2024-02-27T05:42:57.127Z,4.93
2024-02-27T05:43:57.095Z,4.94
2024-02-27T05:44:57.118Z,4.96
2024-02-27T05:45:57.155Z,4.93
2024-02-27T05:46:57.099Z,4.93
2024-02-27T05:47:57.129Z,4.94
2024-02-27T05:48:57.061Z,4.94
2024-02-27T05:49:57.088Z,4.94
2024-02-27T05:50:57.054Z,4.97
2024-02-27T05:51:57.348Z,4.96
2024-02-27T05:52:57.023Z,4.96
2024-02-27T05:53:57.129Z,4.97
2024-02-27T05:54:57.020Z,4.97
2024-02-27T05:55:56.976Z,4.96
2024-02-27T05:56:57.034Z,4.93
2024-02-27T05:57:57.008Z,4.89
2024-02-27T05:58:56.939Z,4.88
2024-02-27T05:59:56.978Z,4.86
2024-02-27T06:00:57.058Z,4.85
2024-02-27T06:01:57.040Z,4.82
2024-02-27T06:02:57.077Z,4.82
2024-02-27T06:03:57.114Z,4.79
2024-02-27T06:04:56.888Z,4.82
2024-02-27T06:05:57.010Z,4.86
2024-02-27T06:06:57.042Z,4.83
2024-02-27T06:07:56.935Z,4.78
2024-02-27T06:08:56.952Z,4.77
2024-02-27T06:09:56.834Z,4.74
2024-02-27T06:10:56.912Z,4.72
2024-02-27T06:11:59.435Z,4.72
2024-02-27T06:12:56.789Z,4.72
2024-02-27T06:13:56.800Z,4.71
2024-02-27T06:14:56.869Z,4.67
2024-02-27T06:15:56.756Z,4.71
2024-02-27T06:16:56.767Z,4.74
2024-02-27T06:17:56.798Z,4.74
2024-02-27T06:18:56.948Z,4.69
2024-02-27T06:19:56.978Z,4.71
2024-02-27T06:20:56.756Z,4.72
2024-02-27T06:21:56.717Z,4.71
2024-02-27T06:22:56.725Z,4.69
2024-02-27T06:23:56.710Z,4.69
2024-02-27T06:24:56.700Z,4.69
2024-02-27T06:25:56.848Z,4.67
2024-02-27T06:26:56.651Z,4.67
2024-02-27T06:27:56.640Z,4.64
2024-02-27T06:28:56.623Z,4.66
2024-02-27T06:29:56.627Z,4.64
2024-02-27T06:30:56.671Z,4.64
2024-02-27T06:31:56.608Z,4.67
2024-02-27T06:32:56.705Z,4.69
2024-02-27T06:33:56.715Z,4.66
2024-02-27T06:34:56.632Z,4.67
2024-02-27T06:35:56.631Z,4.69
2024-02-27T06:36:56.540Z,4.71
2024-02-27T06:37:56.537Z,4.66
2024-02-27T06:38:56.612Z,4.64
2024-02-27T06:39:56.534Z,4.64
2024-02-27T06:40:56.516Z,4.66
2024-02-27T06:41:56.479Z,4.66
2024-02-27T06:42:56.540Z,4.64
2024-02-27T06:43:56.466Z,4.64
2024-02-27T06:44:56.472Z,4.66
2024-02-27T06:45:56.443Z,4.67
2024-02-27T06:46:56.451Z,4.64
2024-02-27T06:47:56.515Z,4.63
2024-02-27T06:49:03.844Z,4.63
2024-02-27T06:49:57.566Z,4.59
2024-02-27T06:50:56.490Z,4.57
2024-02-27T06:51:56.534Z,4.54
2024-02-27T06:52:56.437Z,4.56
2024-02-27T06:53:56.415Z,4.59
2024-02-27T06:54:56.360Z,4.57
2024-02-27T06:55:56.444Z,4.57
2024-02-27T06:56:56.323Z,4.60
2024-02-27T06:57:56.392Z,4.61
2024-02-27T06:58:56.387Z,4.64
2024-02-27T06:59:56.361Z,4.64
2024-02-27T07:00:56.392Z,4.64
2024-02-27T07:01:56.302Z,4.64
2024-02-27T07:02:56.276Z,4.66
2024-02-27T07:03:56.387Z,4.63
2024-02-27T07:04:56.270Z,4.60
2024-02-27T07:05:56.330Z,4.59
2024-02-27T07:06:56.324Z,4.56
2024-02-27T07:07:56.264Z,4.53
2024-02-27T07:08:56.214Z,4.56
2024-02-27T07:09:56.218Z,4.57
2024-02-27T07:10:56.202Z,4.59
2024-02-27T07:11:56.176Z,4.56
2024-02-27T07:12:56.172Z,4.57
2024-02-27T07:13:56.247Z,4.54
2024-02-27T07:14:56.202Z,4.56
2024-02-27T07:15:56.142Z,4.53
2024-02-27T07:16:56.189Z,4.51
2024-02-27T07:17:56.167Z,4.51
2024-02-27T07:18:56.254Z,4.51
2024-02-27T07:19:56.151Z,4.54
2024-02-27T07:20:56.079Z,4.54
2024-02-27T07:21:56.080Z,4.57
2024-02-27T07:22:56.180Z,4.57
2024-02-27T07:23:56.096Z,4.57
2024-02-27T07:24:56.033Z,4.54
2024-02-27T07:25:56.130Z,4.49
2024-02-27T07:26:56.051Z,4.49
2024-02-27T07:27:56.048Z,4.51
2024-02-27T07:28:55.998Z,4.51
2024-02-27T07:29:55.993Z,4.51
2024-02-27T07:30:56.046Z,4.53
2024-02-27T07:31:56.048Z,4.54
2024-02-27T07:32:56.064Z,4.57
2024-02-27T07:33:56.052Z,4.57
2024-02-27T07:34:55.969Z,4.54
2024-02-27T07:35:56.064Z,4.54
2024-02-27T07:36:55.965Z,4.54
2024-02-27T07:37:55.961Z,4.56
2024-02-27T07:38:55.910Z,4.57
2024-02-27T07:39:55.875Z,4.59
2024-02-27T07:40:56.023Z,4.63
2024-02-27T07:41:55.896Z,4.64
2024-02-27T07:42:55.977Z,4.66
2024-02-27T07:43:55.900Z,4.67
2024-02-27T07:44:55.866Z,4.71
2024-02-27T07:45:55.868Z,4.72
2024-02-27T07:46:55.793Z,4.74
2024-02-27T07:47:55.873Z,4.71
2024-02-27T07:48:56.031Z,4.67
2024-02-27T07:49:56.001Z,4.67
2024-02-27T07:50:57.114Z,4.66
2024-02-27T07:51:55.917Z,4.66
2024-02-27T07:52:55.803Z,4.63
2024-02-27T07:53:55.717Z,4.60
2024-02-27T07:54:55.732Z,4.59
2024-02-27T07:55:55.691Z,4.59
2024-02-27T07:56:55.733Z,4.59
2024-02-27T07:57:55.808Z,4.63
2024-02-27T07:58:55.716Z,4.66
2024-02-27T07:59:55.683Z,4.69
2024-02-27T08:00:55.896Z,4.74
2024-02-27T08:01:55.712Z,4.72
2024-02-27T08:02:55.675Z,4.72
2024-02-27T08:03:55.810Z,4.72
2024-02-27T08:04:55.661Z,4.71
2024-02-27T08:05:55.648Z,4.72
2024-02-27T08:06:56.001Z,4.74
2024-02-27T08:07:55.744Z,4.74
2024-02-27T08:08:55.730Z,4.67
2024-02-27T08:09:55.677Z,4.66
2024-02-27T08:10:56.729Z,4.63
2024-02-27T08:11:55.607Z,4.64
2024-02-27T08:12:55.813Z,4.64
2024-02-27T08:13:55.977Z,4.63
2024-02-27T08:14:55.779Z,4.61
2024-02-27T08:15:55.888Z,4.60
2024-02-27T08:16:55.620Z,4.60
2024-02-27T08:17:55.796Z,4.59
2024-02-27T08:18:55.659Z,4.57
2024-02-27T08:19:55.550Z,4.59
2024-02-27T08:20:58.387Z,4.57
2024-02-27T08:21:56.402Z,4.56
2024-02-27T08:22:55.853Z,4.53
2024-02-27T08:23:55.562Z,4.54
2024-02-27T08:24:55.798Z,4.56
2024-02-27T08:25:55.856Z,4.53
2024-02-27T08:26:58.428Z,4.53
2024-02-27T08:27:56.747Z,4.54
2024-02-27T08:28:55.487Z,4.54
2024-02-27T08:29:55.460Z,4.54
2024-02-27T08:30:55.479Z,4.57
2024-02-27T08:31:55.473Z,4.59
2024-02-27T08:32:56.972Z,4.60
2024-02-27T08:33:55.464Z,4.61
2024-02-27T08:34:55.456Z,4.61
2024-02-27T08:35:55.321Z,4.60
2024-02-27T08:36:55.339Z,4.60
2024-02-27T08:37:55.327Z,4.57
2024-02-27T08:38:55.265Z,4.53
2024-02-27T08:39:55.338Z,4.48
2024-02-27T08:40:55.284Z,4.48
2024-02-27T08:41:55.328Z,4.54
2024-02-27T08:42:55.358Z,4.53
2024-02-27T08:43:55.236Z,4.54
2024-02-27T08:44:55.310Z,4.56
2024-02-27T08:45:55.325Z,4.57
2024-02-27T08:46:55.272Z,4.57
2024-02-27T08:47:55.295Z,4.56
2024-02-27T08:48:55.412Z,4.57
2024-02-27T08:49:55.381Z,4.61
2024-02-27T08:50:55.214Z,4.63
2024-02-27T08:51:55.297Z,4.66
2024-02-27T08:52:55.131Z,4.66
2024-02-27T08:53:55.420Z,4.69
2024-02-27T08:54:55.100Z,4.69
2024-02-27T08:55:55.204Z,4.67
2024-02-27T08:56:55.167Z,4.69
2024-02-27T08:57:55.066Z,4.66
2024-02-27T08:58:55.116Z,4.67
2024-02-27T08:59:55.047Z,4.66
2024-02-27T09:00:55.242Z,4.67
2024-02-27T09:01:55.106Z,4.64
2024-02-27T09:02:55.062Z,4.61
2024-02-27T09:03:55.196Z,4.61
2024-02-27T09:04:54.973Z,4.60
2024-02-27T09:05:55.051Z,4.60
2024-02-27T09:06:55.237Z,4.57
2024-02-27T09:07:55.095Z,4.51
2024-02-27T09:08:56.473Z,4.49
2024-02-27T09:09:55.197Z,4.45
2024-02-27T09:10:55.139Z,4.43
2024-02-27T09:11:54.961Z,4.41
2024-02-27T09:12:55.022Z,4.41
2024-02-27T09:13:54.876Z,4.41
2024-02-27T09:14:54.929Z,4.42
2024-02-27T09:15:55.100Z,4.45
2024-02-27T09:16:55.055Z,4.46
2024-02-27T09:17:55.145Z,4.53
2024-02-27T09:18:55.202Z,4.54
2024-02-27T09:19:55.068Z,4.49
2024-02-27T09:20:54.855Z,4.48
2024-02-27T09:21:54.861Z,4.46
2024-02-27T09:22:54.896Z,4.46
2024-02-27T09:23:54.809Z,4.46
2024-02-27T09:24:54.770Z,4.48
2024-02-27T09:25:54.851Z,4.51
2024-02-27T09:26:54.800Z,4.56
2024-02-27T09:27:54.943Z,4.54
2024-02-27T09:28:54.746Z,4.53
2024-02-27T09:29:54.769Z,4.48
2024-02-27T09:30:54.740Z,4.49
2024-02-27T09:31:54.696Z,4.51
2024-02-27T09:32:54.782Z,4.53
2024-02-27T09:33:54.732Z,4.56
2024-02-27T09:34:54.814Z,4.56
2024-02-27T09:35:54.680Z,4.54
2024-02-27T09:36:54.632Z,4.53
2024-02-27T09:37:57.749Z,4.49
2024-02-27T09:38:54.614Z,4.53
2024-02-27T09:39:59.356Z,4.54
2024-02-27T09:40:55.686Z,4.56
2024-02-27T09:41:54.632Z,4.57
2024-02-27T09:42:54.759Z,4.60
2024-02-27T09:43:54.630Z,4.63
2024-02-27T09:44:54.617Z,4.64
2024-02-27T09:45:54.751Z,4.67
2024-02-27T09:46:54.555Z,4.72
2024-02-27T09:47:54.681Z,4.75
2024-02-27T09:48:54.680Z,4.77
2024-02-27T09:49:54.586Z,4.78
2024-02-27T09:50:54.576Z,4.83
2024-02-27T09:51:54.540Z,4.83
2024-02-27T09:52:54.562Z,4.79
2024-02-27T09:53:54.571Z,4.79
2024-02-27T09:54:54.562Z,4.79
2024-02-27T09:55:54.585Z,4.77
2024-02-27T09:56:54.417Z,4.75
2024-02-27T09:57:54.715Z,4.74
2024-02-27T09:58:54.489Z,4.75
2024-02-27T09:59:54.445Z,4.74
2024-02-27T10:00:54.577Z,4.75
2024-02-27T10:01:54.526Z,4.75
2024-02-27T10:02:54.430Z,4.74
2024-02-27T10:03:54.514Z,4.69
2024-02-27T10:04:54.385Z,4.71
2024-02-27T10:05:54.466Z,4.74
2024-02-27T10:06:54.559Z,4.74
2024-02-27T10:07:54.391Z,4.75
2024-02-27T10:08:54.323Z,4.78
2024-02-27T10:09:54.421Z,4.78
2024-02-27T10:10:54.365Z,4.78
2024-02-27T10:11:54.323Z,4.78
2024-02-27T10:12:54.389Z,4.77
2024-02-27T10:13:54.313Z,4.78
2024-02-27T10:14:54.327Z,4.79
2024-02-27T10:15:54.340Z,4.82
2024-02-27T10:16:54.494Z,4.83
2024-02-27T10:17:54.397Z,4.88
2024-02-27T10:18:54.508Z,4.91
2024-02-27T10:19:54.308Z,4.93
2024-02-27T10:20:54.293Z,4.96
2024-02-27T10:21:54.185Z,4.93
2024-02-27T10:22:54.204Z,4.88
2024-02-27T10:23:54.310Z,4.91
2024-02-27T10:24:54.263Z,4.86
2024-02-27T10:25:54.228Z,4.86
2024-02-27T10:26:54.202Z,4.88
2024-02-27T10:27:54.147Z,4.91
2024-02-27T10:28:54.119Z,4.94
2024-02-27T10:29:54.155Z,4.94
2024-02-27T10:30:54.102Z,4.91
2024-02-27T10:31:54.142Z,4.91
2024-02-27T10:32:54.634Z,4.91
2024-02-27T10:33:54.222Z,4.88
2024-02-27T10:34:54.564Z,4.88
2024-02-27T10:35:54.221Z,4.89
2024-02-27T10:36:54.030Z,4.91
2024-02-27T10:37:54.231Z,4.89
2024-02-27T10:38:54.097Z,4.89
2024-02-27T10:39:54.310Z,4.89
2024-02-27T10:40:54.244Z,4.91
2024-02-27T10:41:54.004Z,4.91
2024-02-27T10:42:54.040Z,4.89
2024-02-27T10:43:58.853Z,4.89
2024-02-27T10:44:54.992Z,4.93
2024-02-27T10:45:54.194Z,4.89
2024-02-27T10:46:53.928Z,4.89
2024-02-27T10:47:54.102Z,4.91
2024-02-27T10:48:54.063Z,4.96
2024-02-27T10:49:54.024Z,5.00
2024-02-27T10:50:54.017Z,5.03
2024-02-27T10:51:53.939Z,5.06
2024-02-27T10:52:53.975Z,5.07
2024-02-27T10:53:53.929Z,5.09
2024-02-27T10:54:53.934Z,5.14
2024-02-27T10:55:53.841Z,5.18
2024-02-27T10:56:53.864Z,5.21
2024-02-27T10:57:53.946Z,5.24
2024-02-27T10:58:53.795Z,5.29
2024-02-27T10:59:53.771Z,5.30
2024-02-27T11:00:53.860Z,5.36
2024-02-27T11:01:54.019Z,5.39
2024-02-27T11:02:53.764Z,5.40
2024-02-27T11:03:53.946Z,5.39
2024-02-27T11:04:53.778Z,5.40
2024-02-27T11:05:53.944Z,5.37
2024-02-27T11:06:53.793Z,5.36
2024-02-27T11:07:53.770Z,5.34
2024-02-27T11:08:53.703Z,5.34
2024-02-27T11:09:53.754Z,5.33
2024-02-27T11:10:53.751Z,5.36
2024-02-27T11:11:53.614Z,5.37
2024-02-27T11:12:53.846Z,5.41
2024-02-27T11:13:53.629Z,5.43
2024-02-27T11:14:53.584Z,5.47
2024-02-27T11:15:53.608Z,5.48
2024-02-27T11:16:53.612Z,5.44
2024-02-27T11:17:53.827Z,5.44
2024-02-27T11:18:56.560Z,5.41
2024-02-27T11:19:53.821Z,5.43
2024-02-27T11:20:53.553Z,5.41
2024-02-27T11:21:53.625Z,5.43
2024-02-27T11:22:53.688Z,5.50
2024-02-27T11:23:53.619Z,5.57
2024-02-27T11:24:53.639Z,5.59
2024-02-27T11:25:53.514Z,5.66
2024-02-27T11:26:53.519Z,5.69
2024-02-27T11:27:53.558Z,5.73
2024-02-27T11:28:53.686Z,5.77
2024-02-27T11:29:53.615Z,5.76
2024-02-27T11:31:03.168Z,5.75
2024-02-27T11:31:54.222Z,5.70
2024-02-27T11:32:53.523Z,5.69
2024-02-27T11:33:53.704Z,5.66
2024-02-27T11:34:53.493Z,5.67
2024-02-27T11:35:53.365Z,5.72
2024-02-27T11:36:53.409Z,5.75
2024-02-27T11:37:53.493Z,5.75
2024-02-27T11:38:53.332Z,5.76
2024-02-27T11:39:53.434Z,5.79
2024-02-27T11:40:53.513Z,5.82
2024-02-27T11:41:53.295Z,5.80
2024-02-27T11:42:53.314Z,5.77
2024-02-27T11:43:53.315Z,5.76
2024-02-27T11:44:53.287Z,5.72
2024-02-27T11:45:53.368Z,5.69
2024-02-27T11:46:53.315Z,5.66
2024-02-27T11:47:53.874Z,5.61
2024-02-27T11:48:53.300Z,5.57
2024-02-27T11:49:53.342Z,5.55
2024-02-27T11:50:53.394Z,5.57
2024-02-27T11:51:53.244Z,5.59
2024-02-27T11:52:53.180Z,5.65
2024-02-27T11:53:53.187Z,5.69
2024-02-27T11:54:53.192Z,5.75
2024-02-27T11:55:53.220Z,5.77
2024-02-27T11:56:53.140Z,5.82
2024-02-27T11:57:53.149Z,5.85
2024-02-27T11:58:53.123Z,5.88
2024-02-27T11:59:53.129Z,5.87
2024-02-27T12:00:53.627Z,5.87
2024-02-27T12:01:53.659Z,5.88
2024-02-27T12:02:53.069Z,5.85
2024-02-27T12:03:53.156Z,5.87
2024-02-27T12:04:53.111Z,5.90
2024-02-27T12:05:55.215Z,5.88
2024-02-27T12:06:53.168Z,5.91
2024-02-27T12:07:53.061Z,5.91
2024-02-27T12:08:53.074Z,5.93
2024-02-27T12:09:53.098Z,5.95
2024-02-27T12:10:53.032Z,5.95
2024-02-27T12:11:53.084Z,5.98
2024-02-27T12:12:53.119Z,6.03
2024-02-27T12:13:53.020Z,6.08
2024-02-27T12:14:52.952Z,6.13
2024-02-27T12:15:53.056Z,6.18
2024-02-27T12:16:52.952Z,6.19
2024-02-27T12:17:53.322Z,6.24
2024-02-27T12:18:53.056Z,6.28
2024-02-27T12:19:53.140Z,6.30
2024-02-27T12:20:52.930Z,6.30
2024-02-27T12:21:52.892Z,6.31
2024-02-27T12:22:52.851Z,6.32
2024-02-27T12:23:52.879Z,6.38
2024-02-27T12:24:52.991Z,6.42
2024-02-27T12:25:52.824Z,6.45
2024-02-27T12:26:52.864Z,6.45
2024-02-27T12:27:52.838Z,6.46
2024-02-27T12:28:52.897Z,6.47
2024-02-27T12:29:52.790Z,6.47
2024-02-27T12:30:52.838Z,6.45
2024-02-27T12:31:52.779Z,6.42
2024-02-27T12:32:53.112Z,6.43
2024-02-27T12:33:52.989Z,6.45
2024-02-27T12:34:52.855Z,6.47
2024-02-27T12:35:52.778Z,6.50
2024-02-27T12:36:52.741Z,6.53
2024-02-27T12:37:52.712Z,6.60
2024-02-27T12:38:52.686Z,6.61
2024-02-27T12:39:52.705Z,6.63
2024-02-27T12:40:52.705Z,6.65
2024-02-27T12:41:52.652Z,6.71
2024-02-27T12:42:52.697Z,6.78
2024-02-27T12:43:52.653Z,6.79
2024-02-27T12:44:52.646Z,6.75
2024-02-27T12:45:53.047Z,6.73
2024-02-27T12:46:52.670Z,6.68
2024-02-27T12:47:52.845Z,6.65
2024-02-27T12:48:52.673Z,6.65
2024-02-27T12:49:52.714Z,6.65
2024-02-27T12:50:52.592Z,6.67
2024-02-27T12:51:52.564Z,6.67
2024-02-27T12:52:58.933Z,6.68
2024-02-27T12:53:53.555Z,6.70
2024-02-27T12:54:52.529Z,6.71
2024-02-27T12:55:52.510Z,6.74
2024-02-27T12:56:52.497Z,6.75
2024-02-27T12:57:52.620Z,6.78
2024-02-27T12:58:52.566Z,6.78
2024-02-27T12:59:52.455Z,6.79
2024-02-27T13:00:52.562Z,6.85
2024-02-27T13:01:52.435Z,6.88
2024-02-27T13:02:52.430Z,6.92
2024-02-27T13:03:52.583Z,6.93
2024-02-27T13:04:52.477Z,6.91
2024-02-27T13:05:52.440Z,6.88
2024-02-27T13:06:52.588Z,6.85
2024-02-27T13:07:52.527Z,6.82
2024-02-27T13:08:52.375Z,6.78
2024-02-27T13:09:52.348Z,6.71
2024-02-27T13:10:52.697Z,6.65
2024-02-27T13:11:52.433Z,6.60
2024-02-27T13:12:52.354Z,6.60
2024-02-27T13:13:52.329Z,6.60
2024-02-27T13:14:52.325Z,6.63
2024-02-27T13:15:52.490Z,6.64
2024-02-27T13:16:52.276Z,6.65
2024-02-27T13:17:52.383Z,6.67
2024-02-27T13:18:52.369Z,6.70
2024-02-27T13:19:52.275Z,6.73
2024-02-27T13:20:52.287Z,6.75